sensor_id;sensor_type;location;lat;lon;timestamp;P1;durP1;ratioP1;P2;durP2;ratioP2
4873;SDS011;2451;49.970;9.068;2022-12-10T00:01:24;28.77;;;16.92;;
4873;SDS011;2451;49.970;9.068;2022-12-10T00:03:50;33.55;;;18.90;;
4873;SDS011;2451;49.970;9.068;2022-12-10T00:06:17;38.53;;;18.88;;
4873;SDS011;2451;49.970;9.068;2022-12-10T00:08:48;34.55;;;17.90;;
4873;SDS011;2451;49.970;9.068;2022-12-10T00:11:14;33.85;;;18.98;;
4873;SDS011;2451;49.970;9.068;2022-12-10T00:13:42;36.63;;;19.70;;
4873;SDS011;2451;49.970;9.068;2022-12-10T00:16:09;37.85;;;19.90;;
4873;SDS011;2451;49.970;9.068;2022-12-10T00:18:36;38.00;;;19.73;;
4873;SDS011;2451;49.970;9.068;2022-12-10T00:21:05;38.63;;;19.95;;
4873;SDS011;2451;49.970;9.068;2022-12-10T00:23:32;37.85;;;19.08;;
4873;SDS011;2451;49.970;9.068;2022-12-10T00:26:07;36.53;;;19.15;;
4873;SDS011;2451;49.970;9.068;2022-12-10T00:28:35;35.03;;;19.05;;
4873;SDS011;2451;49.970;9.068;2022-12-10T00:31:04;37.00;;;19.23;;
4873;SDS011;2451;49.970;9.068;2022-12-10T00:33:32;36.08;;;18.48;;
4873;SDS011;2451;49.970;9.068;2022-12-10T00:36:08;33.95;;;17.50;;
4873;SDS011;2451;49.970;9.068;2022-12-10T00:38:42;34.35;;;17.83;;
4873;SDS011;2451;49.970;9.068;2022-12-10T00:41:09;34.53;;;18.00;;
4873;SDS011;2451;49.970;9.068;2022-12-10T00:43:36;35.83;;;18.13;;
4873;SDS011;2451;49.970;9.068;2022-12-10T00:46:02;37.05;;;18.60;;
4873;SDS011;2451;49.970;9.068;2022-12-10T00:48:28;34.00;;;18.75;;
4873;SDS011;2451;49.970;9.068;2022-12-10T00:51:00;37.58;;;19.35;;
4873;SDS011;2451;49.970;9.068;2022-12-10T00:53:29;34.00;;;18.90;;
4873;SDS011;2451;49.970;9.068;2022-12-10T00:55:56;34.00;;;17.38;;
4873;SDS011;2451;49.970;9.068;2022-12-10T00:58:23;36.42;;;18.58;;
4873;SDS011;2451;49.970;9.068;2022-12-10T01:00:51;38.83;;;19.17;;
4873;SDS011;2451;49.970;9.068;2022-12-10T01:03:17;35.42;;;18.50;;
4873;SDS011;2451;49.970;9.068;2022-12-10T01:05:42;35.05;;;18.50;;
4873;SDS011;2451;49.970;9.068;2022-12-10T01:08:08;34.47;;;18.75;;
4873;SDS011;2451;49.970;9.068;2022-12-10T01:10:33;36.47;;;19.02;;
4873;SDS011;2451;49.970;9.068;2022-12-10T01:12:59;36.22;;;18.10;;
4873;SDS011;2451;49.970;9.068;2022-12-10T01:15:25;36.78;;;19.38;;
4873;SDS011;2451;49.970;9.068;2022-12-10T01:17:50;39.70;;;19.90;;
4873;SDS011;2451;49.970;9.068;2022-12-10T01:20:16;41.03;;;20.23;;
4873;SDS011;2451;49.970;9.068;2022-12-10T01:22:42;38.47;;;19.08;;
4873;SDS011;2451;49.970;9.068;2022-12-10T01:25:07;37.90;;;19.52;;
4873;SDS011;2451;49.970;9.068;2022-12-10T01:27:33;39.13;;;19.35;;
4873;SDS011;2451;49.970;9.068;2022-12-10T01:29:59;36.20;;;18.35;;
4873;SDS011;2451;49.970;9.068;2022-12-10T01:32:24;36.58;;;19.48;;
4873;SDS011;2451;49.970;9.068;2022-12-10T01:34:50;37.85;;;18.35;;
4873;SDS011;2451;49.970;9.068;2022-12-10T01:37:15;36.38;;;18.50;;
4873;SDS011;2451;49.970;9.068;2022-12-10T01:39:41;35.17;;;19.17;;
4873;SDS011;2451;49.970;9.068;2022-12-10T01:42:09;36.08;;;18.95;;
4873;SDS011;2451;49.970;9.068;2022-12-10T01:47:08;38.50;;;19.05;;
4873;SDS011;2451;49.970;9.068;2022-12-10T01:49:38;41.03;;;19.92;;
4873;SDS011;2451;49.970;9.068;2022-12-10T01:52:06;38.97;;;19.35;;
4873;SDS011;2451;49.970;9.068;2022-12-10T01:54:35;39.17;;;18.00;;
4873;SDS011;2451;49.970;9.068;2022-12-10T01:57:12;36.53;;;18.95;;
4873;SDS011;2451;49.970;9.068;2022-12-10T01:59:41;39.47;;;19.10;;
4873;SDS011;2451;49.970;9.068;2022-12-10T02:11:05;37.75;;;18.55;;
4873;SDS011;2451;49.970;9.068;2022-12-10T02:13:43;40.35;;;19.13;;
4873;SDS011;2451;49.970;9.068;2022-12-10T02:16:16;39.30;;;18.73;;
4873;SDS011;2451;49.970;9.068;2022-12-10T02:18:48;37.88;;;19.42;;
4873;SDS011;2451;49.970;9.068;2022-12-10T02:21:20;37.92;;;18.48;;
4873;SDS011;2451;49.970;9.068;2022-12-10T02:23:54;37.92;;;17.80;;
4873;SDS011;2451;49.970;9.068;2022-12-10T02:31:36;36.25;;;17.55;;
4873;SDS011;2451;49.970;9.068;2022-12-10T02:34:05;36.13;;;18.90;;
4873;SDS011;2451;49.970;9.068;2022-12-10T02:36:35;35.35;;;17.60;;
4873;SDS011;2451;49.970;9.068;2022-12-10T02:39:03;38.92;;;19.00;;
4873;SDS011;2451;49.970;9.068;2022-12-10T02:41:34;35.03;;;18.42;;
4873;SDS011;2451;49.970;9.068;2022-12-10T02:46:30;34.30;;;17.42;;
4873;SDS011;2451;49.970;9.068;2022-12-10T02:48:59;39.90;;;18.97;;
4873;SDS011;2451;49.970;9.068;2022-12-10T02:51:28;38.35;;;18.20;;
4873;SDS011;2451;49.970;9.068;2022-12-10T02:54:05;36.03;;;17.48;;
4873;SDS011;2451;49.970;9.068;2022-12-10T02:56:52;35.50;;;17.48;;
4873;SDS011;2451;49.970;9.068;2022-12-10T02:59:28;36.95;;;17.30;;
4873;SDS011;2451;49.970;9.068;2022-12-10T03:02:12;35.95;;;17.60;;
4873;SDS011;2451;49.970;9.068;2022-12-10T03:09:59;33.45;;;17.13;;
4873;SDS011;2451;49.970;9.068;2022-12-10T03:12:33;34.70;;;16.80;;
4873;SDS011;2451;49.970;9.068;2022-12-10T03:15:07;34.67;;;17.35;;
4873;SDS011;2451;49.970;9.068;2022-12-10T03:17:35;32.38;;;17.02;;
4873;SDS011;2451;49.970;9.068;2022-12-10T03:20:03;36.53;;;17.58;;
4873;SDS011;2451;49.970;9.068;2022-12-10T03:22:33;33.15;;;16.80;;
4873;SDS011;2451;49.970;9.068;2022-12-10T03:24:59;33.17;;;17.75;;
4873;SDS011;2451;49.970;9.068;2022-12-10T03:27:26;33.55;;;18.08;;
4873;SDS011;2451;49.970;9.068;2022-12-10T03:29:55;37.00;;;18.05;;
4873;SDS011;2451;49.970;9.068;2022-12-10T03:32:24;34.27;;;18.07;;
4873;SDS011;2451;49.970;9.068;2022-12-10T03:34:53;37.65;;;18.67;;
4873;SDS011;2451;49.970;9.068;2022-12-10T03:37:21;34.75;;;16.50;;
4873;SDS011;2451;49.970;9.068;2022-12-10T03:39:47;35.28;;;17.33;;
4873;SDS011;2451;49.970;9.068;2022-12-10T03:42:14;33.97;;;16.30;;
4873;SDS011;2451;49.970;9.068;2022-12-10T03:44:40;33.25;;;16.33;;
4873;SDS011;2451;49.970;9.068;2022-12-10T03:47:06;31.58;;;16.80;;
4873;SDS011;2451;49.970;9.068;2022-12-10T03:49:33;35.10;;;17.33;;
4873;SDS011;2451;49.970;9.068;2022-12-10T03:51:59;33.33;;;17.40;;
4873;SDS011;2451;49.970;9.068;2022-12-10T03:54:24;32.70;;;16.15;;
4873;SDS011;2451;49.970;9.068;2022-12-10T03:56:50;33.40;;;17.30;;
4873;SDS011;2451;49.970;9.068;2022-12-10T03:59:16;33.20;;;17.80;;
4873;SDS011;2451;49.970;9.068;2022-12-10T04:01:42;34.72;;;16.90;;
4873;SDS011;2451;49.970;9.068;2022-12-10T04:04:07;33.10;;;16.85;;
4873;SDS011;2451;49.970;9.068;2022-12-10T04:06:36;33.13;;;16.35;;
4873;SDS011;2451;49.970;9.068;2022-12-10T04:09:03;35.38;;;16.42;;
4873;SDS011;2451;49.970;9.068;2022-12-10T04:11:30;32.78;;;17.35;;
4873;SDS011;2451;49.970;9.068;2022-12-10T04:13:56;35.17;;;17.88;;
4873;SDS011;2451;49.970;9.068;2022-12-10T04:16:40;36.00;;;18.25;;
4873;SDS011;2451;49.970;9.068;2022-12-10T04:19:07;42.25;;;17.95;;
4873;SDS011;2451;49.970;9.068;2022-12-10T04:21:38;36.53;;;17.90;;
4873;SDS011;2451;49.970;9.068;2022-12-10T04:24:24;30.52;;;15.82;;
4873;SDS011;2451;49.970;9.068;2022-12-10T04:27:16;36.70;;;16.90;;
4873;SDS011;2451;49.970;9.068;2022-12-10T04:29:44;40.25;;;17.77;;
4873;SDS011;2451;49.970;9.068;2022-12-10T04:32:10;36.33;;;17.48;;
4873;SDS011;2451;49.970;9.068;2022-12-10T04:34:36;35.78;;;18.40;;
4873;SDS011;2451;49.970;9.068;2022-12-10T04:37:02;35.28;;;17.00;;
4873;SDS011;2451;49.970;9.068;2022-12-10T04:39:29;33.72;;;17.50;;
4873;SDS011;2451;49.970;9.068;2022-12-10T04:41:54;39.55;;;18.25;;
4873;SDS011;2451;49.970;9.068;2022-12-10T04:44:20;33.97;;;17.17;;
4873;SDS011;2451;49.970;9.068;2022-12-10T04:46:46;34.97;;;17.17;;
4873;SDS011;2451;49.970;9.068;2022-12-10T04:49:12;37.92;;;18.23;;
4873;SDS011;2451;49.970;9.068;2022-12-10T04:51:39;36.35;;;18.02;;
4873;SDS011;2451;49.970;9.068;2022-12-10T04:54:05;41.33;;;18.55;;
4873;SDS011;2451;49.970;9.068;2022-12-10T04:56:31;35.47;;;18.45;;
4873;SDS011;2451;49.970;9.068;2022-12-10T04:58:57;36.65;;;18.58;;
4873;SDS011;2451;49.970;9.068;2022-12-10T05:01:23;35.20;;;17.23;;
4873;SDS011;2451;49.970;9.068;2022-12-10T05:03:48;34.25;;;16.83;;
4873;SDS011;2451;49.970;9.068;2022-12-10T05:06:15;36.00;;;18.00;;
4873;SDS011;2451;49.970;9.068;2022-12-10T05:08:43;34.45;;;17.90;;
4873;SDS011;2451;49.970;9.068;2022-12-10T05:11:11;36.95;;;18.38;;
4873;SDS011;2451;49.970;9.068;2022-12-10T05:13:38;35.42;;;18.27;;
4873;SDS011;2451;49.970;9.068;2022-12-10T05:16:06;37.03;;;18.85;;
4873;SDS011;2451;49.970;9.068;2022-12-10T05:18:32;36.15;;;17.48;;
4873;SDS011;2451;49.970;9.068;2022-12-10T05:20:59;34.00;;;18.13;;
4873;SDS011;2451;49.970;9.068;2022-12-10T05:23:25;36.42;;;17.92;;
4873;SDS011;2451;49.970;9.068;2022-12-10T05:28:38;34.63;;;17.83;;
4873;SDS011;2451;49.970;9.068;2022-12-10T05:31:10;32.25;;;17.10;;
4873;SDS011;2451;49.970;9.068;2022-12-10T05:33:48;34.35;;;17.05;;
4873;SDS011;2451;49.970;9.068;2022-12-10T05:36:14;35.55;;;18.40;;
4873;SDS011;2451;49.970;9.068;2022-12-10T05:38:42;35.08;;;18.48;;
4873;SDS011;2451;49.970;9.068;2022-12-10T05:41:09;35.78;;;18.13;;
4873;SDS011;2451;49.970;9.068;2022-12-10T05:43:37;41.65;;;19.25;;
4873;SDS011;2451;49.970;9.068;2022-12-10T05:46:03;33.88;;;17.98;;
4873;SDS011;2451;49.970;9.068;2022-12-10T05:48:31;32.95;;;17.17;;
4873;SDS011;2451;49.970;9.068;2022-12-10T05:50:57;38.17;;;18.95;;
4873;SDS011;2451;49.970;9.068;2022-12-10T05:53:23;38.28;;;18.80;;
4873;SDS011;2451;49.970;9.068;2022-12-10T05:55:49;36.08;;;19.30;;
4873;SDS011;2451;49.970;9.068;2022-12-10T05:58:15;34.35;;;18.02;;
4873;SDS011;2451;49.970;9.068;2022-12-10T06:00:41;35.65;;;18.27;;
4873;SDS011;2451;49.970;9.068;2022-12-10T06:03:08;38.83;;;18.65;;
4873;SDS011;2451;49.970;9.068;2022-12-10T06:05:40;34.03;;;17.83;;
4873;SDS011;2451;49.970;9.068;2022-12-10T06:08:06;35.92;;;17.42;;
4873;SDS011;2451;49.970;9.068;2022-12-10T06:10:35;33.08;;;17.63;;
4873;SDS011;2451;49.970;9.068;2022-12-10T06:13:01;35.65;;;17.77;;
4873;SDS011;2451;49.970;9.068;2022-12-10T06:15:28;34.40;;;18.17;;
4873;SDS011;2451;49.970;9.068;2022-12-10T06:17:54;34.45;;;18.17;;
4873;SDS011;2451;49.970;9.068;2022-12-10T06:20:21;36.03;;;18.23;;
4873;SDS011;2451;49.970;9.068;2022-12-10T06:22:47;31.27;;;17.10;;
4873;SDS011;2451;49.970;9.068;2022-12-10T06:25:12;33.50;;;17.48;;
4873;SDS011;2451;49.970;9.068;2022-12-10T06:27:38;32.30;;;17.30;;
4873;SDS011;2451;49.970;9.068;2022-12-10T06:30:04;38.30;;;19.52;;
4873;SDS011;2451;49.970;9.068;2022-12-10T06:32:31;36.28;;;19.05;;
4873;SDS011;2451;49.970;9.068;2022-12-10T06:34:56;39.13;;;20.00;;
4873;SDS011;2451;49.970;9.068;2022-12-10T06:37:22;40.80;;;20.40;;
4873;SDS011;2451;49.970;9.068;2022-12-10T06:39:49;46.65;;;24.50;;
4873;SDS011;2451;49.970;9.068;2022-12-10T06:42:16;45.75;;;23.33;;
4873;SDS011;2451;49.970;9.068;2022-12-10T06:44:41;44.38;;;22.42;;
4873;SDS011;2451;49.970;9.068;2022-12-10T06:47:07;42.28;;;21.15;;
4873;SDS011;2451;49.970;9.068;2022-12-10T06:49:33;39.38;;;18.23;;
4873;SDS011;2451;49.970;9.068;2022-12-10T06:51:58;35.60;;;18.70;;
4873;SDS011;2451;49.970;9.068;2022-12-10T06:54:24;32.03;;;16.50;;
4873;SDS011;2451;49.970;9.068;2022-12-10T06:56:49;34.85;;;16.65;;
4873;SDS011;2451;49.970;9.068;2022-12-10T06:59:15;31.77;;;15.80;;
4873;SDS011;2451;49.970;9.068;2022-12-10T07:01:40;34.03;;;18.45;;
4873;SDS011;2451;49.970;9.068;2022-12-10T07:04:06;33.45;;;17.48;;
4873;SDS011;2451;49.970;9.068;2022-12-10T07:06:32;36.72;;;19.00;;
4873;SDS011;2451;49.970;9.068;2022-12-10T07:08:58;35.70;;;19.13;;
4873;SDS011;2451;49.970;9.068;2022-12-10T07:11:24;34.88;;;17.95;;
4873;SDS011;2451;49.970;9.068;2022-12-10T07:13:50;33.33;;;17.63;;
4873;SDS011;2451;49.970;9.068;2022-12-10T07:16:17;33.95;;;18.10;;
4873;SDS011;2451;49.970;9.068;2022-12-10T07:18:45;36.47;;;19.10;;
4873;SDS011;2451;49.970;9.068;2022-12-10T07:21:15;37.50;;;20.98;;
4873;SDS011;2451;49.970;9.068;2022-12-10T07:23:42;38.50;;;20.42;;
4873;SDS011;2451;49.970;9.068;2022-12-10T07:26:08;40.25;;;19.65;;
4873;SDS011;2451;49.970;9.068;2022-12-10T07:28:33;34.92;;;18.55;;
4873;SDS011;2451;49.970;9.068;2022-12-10T07:31:06;35.30;;;18.25;;
4873;SDS011;2451;49.970;9.068;2022-12-10T07:33:33;36.03;;;18.05;;
4873;SDS011;2451;49.970;9.068;2022-12-10T07:36:02;32.28;;;18.00;;
4873;SDS011;2451;49.970;9.068;2022-12-10T07:38:29;32.03;;;16.65;;
4873;SDS011;2451;49.970;9.068;2022-12-10T07:40:54;34.20;;;18.17;;
4873;SDS011;2451;49.970;9.068;2022-12-10T07:43:20;35.30;;;18.95;;
4873;SDS011;2451;49.970;9.068;2022-12-10T07:45:45;37.00;;;19.27;;
4873;SDS011;2451;49.970;9.068;2022-12-10T07:48:11;40.22;;;20.00;;
4873;SDS011;2451;49.970;9.068;2022-12-10T07:50:36;36.72;;;18.90;;
4873;SDS011;2451;49.970;9.068;2022-12-10T07:53:02;36.70;;;19.20;;
4873;SDS011;2451;49.970;9.068;2022-12-10T07:55:28;34.72;;;18.00;;
4873;SDS011;2451;49.970;9.068;2022-12-10T07:57:53;37.55;;;19.85;;
4873;SDS011;2451;49.970;9.068;2022-12-10T08:00:19;35.53;;;18.60;;
4873;SDS011;2451;49.970;9.068;2022-12-10T08:02:45;36.95;;;18.52;;
4873;SDS011;2451;49.970;9.068;2022-12-10T08:05:10;34.80;;;18.42;;
4873;SDS011;2451;49.970;9.068;2022-12-10T08:07:36;37.20;;;18.48;;
4873;SDS011;2451;49.970;9.068;2022-12-10T08:10:02;36.10;;;18.90;;
4873;SDS011;2451;49.970;9.068;2022-12-10T08:12:28;37.92;;;19.15;;
4873;SDS011;2451;49.970;9.068;2022-12-10T08:14:53;34.50;;;19.15;;
4873;SDS011;2451;49.970;9.068;2022-12-10T08:17:19;34.67;;;18.80;;
4873;SDS011;2451;49.970;9.068;2022-12-10T08:19:44;35.38;;;18.65;;
4873;SDS011;2451;49.970;9.068;2022-12-10T08:22:10;34.58;;;18.00;;
4873;SDS011;2451;49.970;9.068;2022-12-10T08:24:36;35.10;;;18.05;;
4873;SDS011;2451;49.970;9.068;2022-12-10T08:27:01;36.78;;;19.13;;
4873;SDS011;2451;49.970;9.068;2022-12-10T08:29:27;35.75;;;18.58;;
4873;SDS011;2451;49.970;9.068;2022-12-10T08:31:52;45.63;;;22.73;;
4873;SDS011;2451;49.970;9.068;2022-12-10T08:34:18;42.03;;;22.00;;
4873;SDS011;2451;49.970;9.068;2022-12-10T08:36:44;39.33;;;20.92;;
4873;SDS011;2451;49.970;9.068;2022-12-10T08:39:10;37.08;;;20.70;;
4873;SDS011;2451;49.970;9.068;2022-12-10T08:41:40;37.03;;;20.25;;
4873;SDS011;2451;49.970;9.068;2022-12-10T08:44:07;35.00;;;20.38;;
4873;SDS011;2451;49.970;9.068;2022-12-10T08:46:32;37.28;;;19.08;;
4873;SDS011;2451;49.970;9.068;2022-12-10T08:48:58;31.40;;;17.27;;
4873;SDS011;2451;49.970;9.068;2022-12-10T08:51:24;36.60;;;20.80;;
4873;SDS011;2451;49.970;9.068;2022-12-10T08:53:50;36.10;;;18.67;;
4873;SDS011;2451;49.970;9.068;2022-12-10T08:56:15;34.85;;;18.38;;
4873;SDS011;2451;49.970;9.068;2022-12-10T08:58:41;36.80;;;20.40;;
4873;SDS011;2451;49.970;9.068;2022-12-10T09:01:08;36.35;;;19.85;;
4873;SDS011;2451;49.970;9.068;2022-12-10T09:03:35;32.80;;;17.85;;
4873;SDS011;2451;49.970;9.068;2022-12-10T09:06:03;35.38;;;18.23;;
4873;SDS011;2451;49.970;9.068;2022-12-10T09:08:30;33.22;;;17.38;;
4873;SDS011;2451;49.970;9.068;2022-12-10T09:10:55;34.25;;;18.70;;
4873;SDS011;2451;49.970;9.068;2022-12-10T09:13:21;31.02;;;17.65;;
4873;SDS011;2451;49.970;9.068;2022-12-10T09:15:50;34.50;;;17.95;;
4873;SDS011;2451;49.970;9.068;2022-12-10T09:18:16;32.72;;;18.10;;
4873;SDS011;2451;49.970;9.068;2022-12-10T09:20:42;31.67;;;17.45;;
4873;SDS011;2451;49.970;9.068;2022-12-10T09:23:08;33.78;;;17.55;;
4873;SDS011;2451;49.970;9.068;2022-12-10T09:25:33;33.80;;;18.08;;
4873;SDS011;2451;49.970;9.068;2022-12-10T09:27:59;36.83;;;19.30;;
4873;SDS011;2451;49.970;9.068;2022-12-10T09:30:24;33.13;;;17.35;;
4873;SDS011;2451;49.970;9.068;2022-12-10T09:32:50;32.70;;;17.58;;
4873;SDS011;2451;49.970;9.068;2022-12-10T09:35:15;36.20;;;19.58;;
4873;SDS011;2451;49.970;9.068;2022-12-10T09:37:41;39.97;;;20.75;;
4873;SDS011;2451;49.970;9.068;2022-12-10T09:40:15;35.47;;;19.92;;
4873;SDS011;2451;49.970;9.068;2022-12-10T09:42:59;33.83;;;18.83;;
4873;SDS011;2451;49.970;9.068;2022-12-10T09:50:49;33.78;;;17.65;;
4873;SDS011;2451;49.970;9.068;2022-12-10T09:53:39;37.65;;;19.92;;
4873;SDS011;2451;49.970;9.068;2022-12-10T09:56:10;36.92;;;19.42;;
4873;SDS011;2451;49.970;9.068;2022-12-10T09:59:13;36.97;;;19.00;;
4873;SDS011;2451;49.970;9.068;2022-12-10T10:01:47;37.70;;;19.45;;
4873;SDS011;2451;49.970;9.068;2022-12-10T10:04:23;34.72;;;18.40;;
4873;SDS011;2451;49.970;9.068;2022-12-10T10:06:48;38.47;;;20.73;;
4873;SDS011;2451;49.970;9.068;2022-12-10T10:09:14;37.20;;;20.00;;
4873;SDS011;2451;49.970;9.068;2022-12-10T10:11:41;40.28;;;22.42;;
4873;SDS011;2451;49.970;9.068;2022-12-10T10:14:15;36.58;;;19.60;;
4873;SDS011;2451;49.970;9.068;2022-12-10T10:16:51;35.80;;;19.55;;
4873;SDS011;2451;49.970;9.068;2022-12-10T10:19:27;37.05;;;19.35;;
4873;SDS011;2451;49.970;9.068;2022-12-10T10:21:57;35.17;;;19.20;;
4873;SDS011;2451;49.970;9.068;2022-12-10T10:24:25;33.72;;;18.95;;
4873;SDS011;2451;49.970;9.068;2022-12-10T10:27:13;38.50;;;20.95;;
4873;SDS011;2451;49.970;9.068;2022-12-10T10:29:41;36.92;;;20.15;;
4873;SDS011;2451;49.970;9.068;2022-12-10T10:32:18;39.33;;;19.85;;
4873;SDS011;2451;49.970;9.068;2022-12-10T10:34:44;39.00;;;20.33;;
4873;SDS011;2451;49.970;9.068;2022-12-10T10:37:19;35.50;;;19.88;;
4873;SDS011;2451;49.970;9.068;2022-12-10T10:39:56;37.47;;;19.52;;
4873;SDS011;2451;49.970;9.068;2022-12-10T10:42:39;36.40;;;20.13;;
4873;SDS011;2451;49.970;9.068;2022-12-10T10:45:53;36.80;;;19.77;;
4873;SDS011;2451;49.970;9.068;2022-12-10T10:48:17;34.22;;;19.23;;
4873;SDS011;2451;49.970;9.068;2022-12-10T10:50:45;36.17;;;20.88;;
4873;SDS011;2451;49.970;9.068;2022-12-10T10:53:47;36.13;;;18.92;;
4873;SDS011;2451;49.970;9.068;2022-12-10T10:56:10;33.63;;;17.83;;
4873;SDS011;2451;49.970;9.068;2022-12-10T10:59:00;38.40;;;19.75;;
4873;SDS011;2451;49.970;9.068;2022-12-10T11:01:47;36.85;;;19.70;;
4873;SDS011;2451;49.970;9.068;2022-12-10T11:04:20;35.38;;;19.67;;
4873;SDS011;2451;49.970;9.068;2022-12-10T11:06:49;39.05;;;20.17;;
4873;SDS011;2451;49.970;9.068;2022-12-10T11:09:20;40.78;;;21.35;;
4873;SDS011;2451;49.970;9.068;2022-12-10T11:12:00;39.58;;;21.38;;
4873;SDS011;2451;49.970;9.068;2022-12-10T11:14:32;40.40;;;21.52;;
4873;SDS011;2451;49.970;9.068;2022-12-10T11:19:35;40.13;;;22.35;;
4873;SDS011;2451;49.970;9.068;2022-12-10T11:22:16;37.08;;;21.45;;
4873;SDS011;2451;49.970;9.068;2022-12-10T11:24:46;41.65;;;24.33;;
4873;SDS011;2451;49.970;9.068;2022-12-10T11:27:13;44.17;;;24.70;;
4873;SDS011;2451;49.970;9.068;2022-12-10T11:43:27;40.05;;;21.83;;
4873;SDS011;2451;49.970;9.068;2022-12-10T11:49:20;37.95;;;20.70;;
4873;SDS011;2451;49.970;9.068;2022-12-10T11:52:20;37.13;;;21.40;;
4873;SDS011;2451;49.970;9.068;2022-12-10T12:00:31;33.65;;;20.25;;
4873;SDS011;2451;49.970;9.068;2022-12-10T12:06:03;33.67;;;18.63;;
4873;SDS011;2451;49.970;9.068;2022-12-10T12:14:43;34.10;;;20.63;;
4873;SDS011;2451;49.970;9.068;2022-12-10T12:17:19;39.55;;;21.48;;
4873;SDS011;2451;49.970;9.068;2022-12-10T12:19:51;35.97;;;19.48;;
4873;SDS011;2451;49.970;9.068;2022-12-10T12:22:23;34.53;;;19.63;;
4873;SDS011;2451;49.970;9.068;2022-12-10T12:25:10;35.13;;;20.42;;
4873;SDS011;2451;49.970;9.068;2022-12-10T12:27:45;34.83;;;19.15;;
4873;SDS011;2451;49.970;9.068;2022-12-10T12:30:22;33.15;;;18.63;;
4873;SDS011;2451;49.970;9.068;2022-12-10T12:35:55;34.40;;;19.98;;
4873;SDS011;2451;49.970;9.068;2022-12-10T12:38:30;34.67;;;19.67;;
4873;SDS011;2451;49.970;9.068;2022-12-10T12:41:03;34.42;;;19.55;;
4873;SDS011;2451;49.970;9.068;2022-12-10T12:44:25;30.92;;;18.00;;
4873;SDS011;2451;49.970;9.068;2022-12-10T12:46:41;32.67;;;18.85;;
4873;SDS011;2451;49.970;9.068;2022-12-10T12:49:10;30.92;;;18.10;;
4873;SDS011;2451;49.970;9.068;2022-12-10T12:52:05;32.60;;;18.48;;
4873;SDS011;2451;49.970;9.068;2022-12-10T12:54:44;32.83;;;18.55;;
4873;SDS011;2451;49.970;9.068;2022-12-10T12:57:23;32.70;;;18.23;;
4873;SDS011;2451;49.970;9.068;2022-12-10T13:05:29;32.67;;;17.77;;
4873;SDS011;2451;49.970;9.068;2022-12-10T13:10:51;30.77;;;17.77;;
4873;SDS011;2451;49.970;9.068;2022-12-10T13:13:41;30.92;;;16.33;;
4873;SDS011;2451;49.970;9.068;2022-12-10T13:34:44;30.42;;;17.08;;
4873;SDS011;2451;49.970;9.068;2022-12-10T13:39:53;33.10;;;16.88;;
4873;SDS011;2451;49.970;9.068;2022-12-10T13:42:30;29.70;;;16.92;;
4873;SDS011;2451;49.970;9.068;2022-12-10T13:47:53;35.55;;;19.40;;
4873;SDS011;2451;49.970;9.068;2022-12-10T13:53:11;29.27;;;16.55;;
4873;SDS011;2451;49.970;9.068;2022-12-10T14:08:53;31.10;;;17.27;;
4873;SDS011;2451;49.970;9.068;2022-12-10T14:11:23;33.42;;;18.17;;
4873;SDS011;2451;49.970;9.068;2022-12-10T14:13:56;30.80;;;17.98;;
4873;SDS011;2451;49.970;9.068;2022-12-10T14:16:23;29.25;;;16.45;;
4873;SDS011;2451;49.970;9.068;2022-12-10T14:18:55;30.05;;;17.00;;
4873;SDS011;2451;49.970;9.068;2022-12-10T14:21:25;30.35;;;17.85;;
4873;SDS011;2451;49.970;9.068;2022-12-10T14:23:52;30.58;;;16.75;;
4873;SDS011;2451;49.970;9.068;2022-12-10T14:26:25;28.90;;;16.75;;
4873;SDS011;2451;49.970;9.068;2022-12-10T14:28:57;29.48;;;16.83;;
4873;SDS011;2451;49.970;9.068;2022-12-10T14:31:43;29.15;;;15.82;;
4873;SDS011;2451;49.970;9.068;2022-12-10T14:34:13;28.58;;;16.30;;
4873;SDS011;2451;49.970;9.068;2022-12-10T14:39:16;37.90;;;19.00;;
4873;SDS011;2451;49.970;9.068;2022-12-10T14:41:42;31.50;;;17.17;;
4873;SDS011;2451;49.970;9.068;2022-12-10T14:44:09;29.08;;;16.40;;
4873;SDS011;2451;49.970;9.068;2022-12-10T14:46:38;27.85;;;15.15;;
4873;SDS011;2451;49.970;9.068;2022-12-10T14:49:04;28.67;;;16.98;;
4873;SDS011;2451;49.970;9.068;2022-12-10T14:51:33;31.20;;;17.13;;
4873;SDS011;2451;49.970;9.068;2022-12-10T14:54:01;29.33;;;17.42;;
4873;SDS011;2451;49.970;9.068;2022-12-10T14:56:33;28.00;;;16.85;;
4873;SDS011;2451;49.970;9.068;2022-12-10T14:59:10;30.52;;;18.13;;
4873;SDS011;2451;49.970;9.068;2022-12-10T15:01:38;27.85;;;16.50;;
4873;SDS011;2451;49.970;9.068;2022-12-10T15:04:11;27.05;;;16.00;;
4873;SDS011;2451;49.970;9.068;2022-12-10T15:06:42;28.50;;;16.60;;
4873;SDS011;2451;49.970;9.068;2022-12-10T15:09:16;28.77;;;17.20;;
4873;SDS011;2451;49.970;9.068;2022-12-10T15:11:52;28.75;;;17.20;;
4873;SDS011;2451;49.970;9.068;2022-12-10T15:14:23;29.40;;;17.15;;
4873;SDS011;2451;49.970;9.068;2022-12-10T15:16:51;31.20;;;18.65;;
4873;SDS011;2451;49.970;9.068;2022-12-10T15:21:56;26.38;;;15.30;;
4873;SDS011;2451;49.970;9.068;2022-12-10T15:24:37;31.20;;;17.55;;
4873;SDS011;2451;49.970;9.068;2022-12-10T15:27:16;27.90;;;15.73;;
4873;SDS011;2451;49.970;9.068;2022-12-10T15:29:44;31.27;;;17.67;;
4873;SDS011;2451;49.970;9.068;2022-12-10T15:32:11;31.30;;;17.25;;
4873;SDS011;2451;49.970;9.068;2022-12-10T15:34:47;30.05;;;17.13;;
4873;SDS011;2451;49.970;9.068;2022-12-10T15:37:15;29.38;;;16.83;;
4873;SDS011;2451;49.970;9.068;2022-12-10T15:39:46;30.20;;;17.10;;
4873;SDS011;2451;49.970;9.068;2022-12-10T15:44:59;25.85;;;15.32;;
4873;SDS011;2451;49.970;9.068;2022-12-10T15:47:29;26.10;;;16.17;;
4873;SDS011;2451;49.970;9.068;2022-12-10T15:49:55;26.02;;;15.77;;
4873;SDS011;2451;49.970;9.068;2022-12-10T15:52:23;29.08;;;16.50;;
4873;SDS011;2451;49.970;9.068;2022-12-10T15:54:51;28.67;;;16.42;;
4873;SDS011;2451;49.970;9.068;2022-12-10T15:57:25;29.27;;;17.85;;
4873;SDS011;2451;49.970;9.068;2022-12-10T15:59:59;29.90;;;18.20;;
4873;SDS011;2451;49.970;9.068;2022-12-10T16:05:01;27.85;;;17.58;;
4873;SDS011;2451;49.970;9.068;2022-12-10T16:07:30;30.20;;;18.10;;
4873;SDS011;2451;49.970;9.068;2022-12-10T16:09:57;26.75;;;16.73;;
4873;SDS011;2451;49.970;9.068;2022-12-10T16:12:23;26.08;;;15.43;;
4873;SDS011;2451;49.970;9.068;2022-12-10T16:14:52;28.23;;;17.35;;
4873;SDS011;2451;49.970;9.068;2022-12-10T16:17:24;25.58;;;16.25;;
4873;SDS011;2451;49.970;9.068;2022-12-10T16:19:50;27.58;;;17.27;;
4873;SDS011;2451;49.970;9.068;2022-12-10T16:22:16;28.88;;;18.27;;
4873;SDS011;2451;49.970;9.068;2022-12-10T16:24:41;29.20;;;17.27;;
4873;SDS011;2451;49.970;9.068;2022-12-10T16:27:11;33.20;;;20.80;;
4873;SDS011;2451;49.970;9.068;2022-12-10T16:29:38;26.92;;;16.05;;
4873;SDS011;2451;49.970;9.068;2022-12-10T16:32:04;25.00;;;16.40;;
4873;SDS011;2451;49.970;9.068;2022-12-10T16:34:29;30.83;;;18.55;;
4873;SDS011;2451;49.970;9.068;2022-12-10T16:36:55;28.17;;;16.33;;
4873;SDS011;2451;49.970;9.068;2022-12-10T16:39:21;30.52;;;18.88;;
4873;SDS011;2451;49.970;9.068;2022-12-10T16:41:51;28.73;;;17.65;;
4873;SDS011;2451;49.970;9.068;2022-12-10T16:44:17;25.60;;;16.25;;
4873;SDS011;2451;49.970;9.068;2022-12-10T16:46:43;26.42;;;17.08;;
4873;SDS011;2451;49.970;9.068;2022-12-10T16:49:08;25.92;;;15.40;;
4873;SDS011;2451;49.970;9.068;2022-12-10T16:51:34;27.55;;;16.38;;
4873;SDS011;2451;49.970;9.068;2022-12-10T16:54:01;27.67;;;15.20;;
4873;SDS011;2451;49.970;9.068;2022-12-10T16:56:27;22.60;;;14.25;;
4873;SDS011;2451;49.970;9.068;2022-12-10T16:58:53;24.77;;;16.05;;
4873;SDS011;2451;49.970;9.068;2022-12-10T17:01:20;22.17;;;13.88;;
4873;SDS011;2451;49.970;9.068;2022-12-10T17:03:47;27.67;;;16.83;;
4873;SDS011;2451;49.970;9.068;2022-12-10T17:06:17;23.92;;;14.73;;
4873;SDS011;2451;49.970;9.068;2022-12-10T17:08:43;26.00;;;14.65;;
4873;SDS011;2451;49.970;9.068;2022-12-10T17:11:12;23.50;;;14.05;;